sensor_id;sensor_type;location;lat;lon;timestamp;temperature;humidity
78779;DHT22;68121;52.404;5.318;2024-01-10T00:00:08;-3.00;59.20
78779;DHT22;68121;52.404;5.318;2024-01-10T00:02:34;-3.00;59.30
78779;DHT22;68121;52.404;5.318;2024-01-10T00:05:00;-3.00;59.30
78779;DHT22;68121;52.404;5.318;2024-01-10T00:07:26;-3.00;59.30
78779;DHT22;68121;52.404;5.318;2024-01-10T00:09:52;-3.00;59.30
78779;DHT22;68121;52.404;5.318;2024-01-10T00:12:18;-3.00;59.30
78779;DHT22;68121;52.404;5.318;2024-01-10T00:14:44;-3.10;59.50
78779;DHT22;68121;52.404;5.318;2024-01-10T00:17:10;-3.00;59.40
78779;DHT22;68121;52.404;5.318;2024-01-10T00:19:36;-3.00;59.40
78779;DHT22;68121;52.404;5.318;2024-01-10T00:22:02;-3.10;59.50
78779;DHT22;68121;52.404;5.318;2024-01-10T00:24:28;-3.10;59.50
78779;DHT22;68121;52.404;5.318;2024-01-10T00:26:54;-3.10;59.50
78779;DHT22;68121;52.404;5.318;2024-01-10T00:29:21;-3.10;59.60
78779;DHT22;68121;52.404;5.318;2024-01-10T00:31:47;-3.10;59.60
78779;DHT22;68121;52.404;5.318;2024-01-10T00:34:13;-3.10;59.70
78779;DHT22;68121;52.404;5.318;2024-01-10T00:36:39;-3.10;59.60
78779;DHT22;68121;52.404;5.318;2024-01-10T00:39:05;-3.10;59.70
78779;DHT22;68121;52.404;5.318;2024-01-10T00:41:32;-3.10;59.60
78779;DHT22;68121;52.404;5.318;2024-01-10T00:43:58;-3.10;59.70
78779;DHT22;68121;52.404;5.318;2024-01-10T00:46:24;-3.10;59.70
78779;DHT22;68121;52.404;5.318;2024-01-10T00:48:50;-3.10;59.70
78779;DHT22;68121;52.404;5.318;2024-01-10T00:51:16;-3.10;59.70
78779;DHT22;68121;52.404;5.318;2024-01-10T00:53:42;-3.10;59.80
78779;DHT22;68121;52.404;5.318;2024-01-10T00:56:08;-3.20;59.80
78779;DHT22;68121;52.404;5.318;2024-01-10T00:58:35;-3.20;59.80
78779;DHT22;68121;52.404;5.318;2024-01-10T01:01:01;-3.20;59.90
78779;DHT22;68121;52.404;5.318;2024-01-10T01:03:27;-3.20;60.00
78779;DHT22;68121;52.404;5.318;2024-01-10T01:05:53;-3.20;60.00
78779;DHT22;68121;52.404;5.318;2024-01-10T01:08:19;-3.20;60.00
78779;DHT22;68121;52.404;5.318;2024-01-10T01:10:45;-3.20;60.00
78779;DHT22;68121;52.404;5.318;2024-01-10T01:13:11;-3.20;60.00
78779;DHT22;68121;52.404;5.318;2024-01-10T01:15:37;-3.20;60.00
78779;DHT22;68121;52.404;5.318;2024-01-10T01:18:03;-3.20;60.10
78779;DHT22;68121;52.404;5.318;2024-01-10T01:20:29;-3.20;60.10
78779;DHT22;68121;52.404;5.318;2024-01-10T01:22:55;-3.30;60.10
78779;DHT22;68121;52.404;5.318;2024-01-10T01:25:21;-3.40;60.10
78779;DHT22;68121;52.404;5.318;2024-01-10T01:27:47;-3.40;60.20
78779;DHT22;68121;52.404;5.318;2024-01-10T01:30:13;-3.40;60.30
78779;DHT22;68121;52.404;5.318;2024-01-10T01:32:39;-3.40;60.20
78779;DHT22;68121;52.404;5.318;2024-01-10T01:35:06;-3.40;60.20
78779;DHT22;68121;52.404;5.318;2024-01-10T01:37:32;-3.40;60.20
78779;DHT22;68121;52.404;5.318;2024-01-10T01:39:58;-3.40;60.30
78779;DHT22;68121;52.404;5.318;2024-01-10T01:42:24;-3.40;60.30
78779;DHT22;68121;52.404;5.318;2024-01-10T01:44:50;-3.40;60.20
78779;DHT22;68121;52.404;5.318;2024-01-10T01:47:16;-3.40;60.20
78779;DHT22;68121;52.404;5.318;2024-01-10T01:49:42;-3.40;60.30
78779;DHT22;68121;52.404;5.318;2024-01-10T01:52:10;-3.40;60.30
78779;DHT22;68121;52.404;5.318;2024-01-10T01:54:36;-3.40;60.30
78779;DHT22;68121;52.404;5.318;2024-01-10T01:57:02;-3.40;60.30
78779;DHT22;68121;52.404;5.318;2024-01-10T01:59:29;-3.40;60.30
78779;DHT22;68121;52.404;5.318;2024-01-10T02:01:55;-3.40;60.40
78779;DHT22;68121;52.404;5.318;2024-01-10T02:04:25;-3.40;60.40
78779;DHT22;68121;52.404;5.318;2024-01-10T02:06:51;-3.40;60.50
78779;DHT22;68121;52.404;5.318;2024-01-10T02:09:18;-3.40;60.50
78779;DHT22;68121;52.404;5.318;2024-01-10T02:11:44;-3.40;60.50
78779;DHT22;68121;52.404;5.318;2024-01-10T02:14:10;-3.40;60.60
78779;DHT22;68121;52.404;5.318;2024-01-10T02:16:36;-3.40;60.50
78779;DHT22;68121;52.404;5.318;2024-01-10T02:19:17;-3.50;60.50
78779;DHT22;68121;52.404;5.318;2024-01-10T02:21:43;-3.40;60.50
78779;DHT22;68121;52.404;5.318;2024-01-10T02:24:09;-3.50;60.50
78779;DHT22;68121;52.404;5.318;2024-01-10T02:26:35;-3.50;60.60
78779;DHT22;68121;52.404;5.318;2024-01-10T02:29:01;-3.50;60.60
78779;DHT22;68121;52.404;5.318;2024-01-10T02:31:27;-3.50;60.70
78779;DHT22;68121;52.404;5.318;2024-01-10T02:33:53;-3.50;60.60
78779;DHT22;68121;52.404;5.318;2024-01-10T02:36:20;-3.50;60.50
78779;DHT22;68121;52.404;5.318;2024-01-10T02:38:46;-3.50;60.50
78779;DHT22;68121;52.404;5.318;2024-01-10T02:41:13;-3.50;60.70
78779;DHT22;68121;52.404;5.318;2024-01-10T02:43:39;-3.50;60.70
78779;DHT22;68121;52.404;5.318;2024-01-10T02:46:05;-3.50;60.70
78779;DHT22;68121;52.404;5.318;2024-01-10T02:48:31;-3.50;60.70
78779;DHT22;68121;52.404;5.318;2024-01-10T02:50:57;-3.50;60.70
78779;DHT22;68121;52.404;5.318;2024-01-10T02:53:23;-3.60;60.70
78779;DHT22;68121;52.404;5.318;2024-01-10T02:55:50;-3.50;60.80
78779;DHT22;68121;52.404;5.318;2024-01-10T02:58:16;-3.60;60.70
78779;DHT22;68121;52.404;5.318;2024-01-10T03:00:42;-3.60;60.80
78779;DHT22;68121;52.404;5.318;2024-01-10T03:03:08;-3.60;60.80
78779;DHT22;68121;52.404;5.318;2024-01-10T03:05:34;-3.60;60.70
78779;DHT22;68121;52.404;5.318;2024-01-10T03:08:00;-3.60;60.70
78779;DHT22;68121;52.404;5.318;2024-01-10T03:10:28;-3.60;60.70
78779;DHT22;68121;52.404;5.318;2024-01-10T03:12:54;-3.60;60.80
78779;DHT22;68121;52.404;5.318;2024-01-10T03:15:20;-3.60;60.80
78779;DHT22;68121;52.404;5.318;2024-01-10T03:17:46;-3.60;60.80
78779;DHT22;68121;52.404;5.318;2024-01-10T03:20:12;-3.60;60.80
78779;DHT22;68121;52.404;5.318;2024-01-10T03:22:38;-3.60;60.80
78779;DHT22;68121;52.404;5.318;2024-01-10T03:25:05;-3.60;60.80
78779;DHT22;68121;52.404;5.318;2024-01-10T03:27:31;-3.60;60.80
78779;DHT22;68121;52.404;5.318;2024-01-10T03:29:56;-3.60;60.70
78779;DHT22;68121;52.404;5.318;2024-01-10T03:32:22;-3.60;60.70
78779;DHT22;68121;52.404;5.318;2024-01-10T03:34:49;-3.60;60.70
78779;DHT22;68121;52.404;5.318;2024-01-10T03:37:17;-3.60;60.70
78779;DHT22;68121;52.404;5.318;2024-01-10T03:39:43;-3.60;60.60
78779;DHT22;68121;52.404;5.318;2024-01-10T03:42:10;-3.60;60.70
78779;DHT22;68121;52.404;5.318;2024-01-10T03:44:36;-3.60;60.70
78779;DHT22;68121;52.404;5.318;2024-01-10T03:47:03;-3.60;60.70
78779;DHT22;68121;52.404;5.318;2024-01-10T03:49:29;-3.60;60.70
78779;DHT22;68121;52.404;5.318;2024-01-10T03:51:55;-3.60;60.70
78779;DHT22;68121;52.404;5.318;2024-01-10T03:54:21;-3.60;60.70
78779;DHT22;68121;52.404;5.318;2024-01-10T03:56:47;-3.60;60.70
78779;DHT22;68121;52.404;5.318;2024-01-10T03:59:13;-3.60;60.70
78779;DHT22;68121;52.404;5.318;2024-01-10T04:01:39;-3.60;60.60
78779;DHT22;68121;52.404;5.318;2024-01-10T04:04:05;-3.60;60.70
78779;DHT22;68121;52.404;5.318;2024-01-10T04:06:31;-3.60;60.70
78779;DHT22;68121;52.404;5.318;2024-01-10T04:08:57;-3.60;60.50
78779;DHT22;68121;52.404;5.318;2024-01-10T04:11:23;-3.70;60.60
78779;DHT22;68121;52.404;5.318;2024-01-10T04:13:49;-3.60;60.70
78779;DHT22;68121;52.404;5.318;2024-01-10T04:16:15;-3.70;60.70
78779;DHT22;68121;52.404;5.318;2024-01-10T04:18:41;-3.70;60.70
78779;DHT22;68121;52.404;5.318;2024-01-10T04:21:07;-3.70;60.80
78779;DHT22;68121;52.404;5.318;2024-01-10T04:23:34;-3.70;60.70
78779;DHT22;68121;52.404;5.318;2024-01-10T04:26:01;-3.70;60.80
78779;DHT22;68121;52.404;5.318;2024-01-10T04:28:28;-3.80;60.80
78779;DHT22;68121;52.404;5.318;2024-01-10T04:30:54;-3.80;60.90
78779;DHT22;68121;52.404;5.318;2024-01-10T04:33:20;-3.80;60.90
78779;DHT22;68121;52.404;5.318;2024-01-10T04:35:46;-3.80;61.00
78779;DHT22;68121;52.404;5.318;2024-01-10T04:38:12;-3.80;60.90
78779;DHT22;68121;52.404;5.318;2024-01-10T04:40:38;-3.80;60.90
78779;DHT22;68121;52.404;5.318;2024-01-10T04:43:04;-3.80;60.90
78779;DHT22;68121;52.404;5.318;2024-01-10T04:45:31;-3.80;60.90
78779;DHT22;68121;52.404;5.318;2024-01-10T04:47:57;-3.80;60.90
78779;DHT22;68121;52.404;5.318;2024-01-10T04:50:23;-3.80;60.90
78779;DHT22;68121;52.404;5.318;2024-01-10T04:52:49;-3.80;60.90
78779;DHT22;68121;52.404;5.318;2024-01-10T04:55:15;-3.80;60.90
78779;DHT22;68121;52.404;5.318;2024-01-10T04:57:41;-3.90;61.00
78779;DHT22;68121;52.404;5.318;2024-01-10T05:00:07;-3.90;61.00
78779;DHT22;68121;52.404;5.318;2024-01-10T05:02:33;-3.90;60.90
78779;DHT22;68121;52.404;5.318;2024-01-10T05:04:59;-3.90;60.90
78779;DHT22;68121;52.404;5.318;2024-01-10T05:07:25;-4.00;60.90
78779;DHT22;68121;52.404;5.318;2024-01-10T05:09:51;-4.00;60.90
78779;DHT22;68121;52.404;5.318;2024-01-10T05:12:17;-4.00;60.90
78779;DHT22;68121;52.404;5.318;2024-01-10T05:14:43;-4.00;60.90
78779;DHT22;68121;52.404;5.318;2024-01-10T05:17:09;-4.00;61.00
78779;DHT22;68121;52.404;5.318;2024-01-10T05:19:35;-4.00;61.00
78779;DHT22;68121;52.404;5.318;2024-01-10T05:22:01;-4.00;61.00
78779;DHT22;68121;52.404;5.318;2024-01-10T05:24:27;-4.00;61.10
78779;DHT22;68121;52.404;5.318;2024-01-10T05:26:53;-4.00;61.10
78779;DHT22;68121;52.404;5.318;2024-01-10T05:29:19;-4.00;61.00
78779;DHT22;68121;52.404;5.318;2024-01-10T05:31:47;-4.00;61.00
78779;DHT22;68121;52.404;5.318;2024-01-10T05:34:14;-4.00;61.00
78779;DHT22;68121;52.404;5.318;2024-01-10T05:36:40;-4.00;61.00
78779;DHT22;68121;52.404;5.318;2024-01-10T05:39:06;-4.00;61.00
78779;DHT22;68121;52.404;5.318;2024-01-10T05:41:32;-4.00;61.00
78779;DHT22;68121;52.404;5.318;2024-01-10T05:43:58;-4.00;61.00
78779;DHT22;68121;52.404;5.318;2024-01-10T05:46:24;-4.00;61.00
78779;DHT22;68121;52.404;5.318;2024-01-10T05:48:50;-4.00;61.00
78779;DHT22;68121;52.404;5.318;2024-01-10T05:51:16;-4.00;61.00
78779;DHT22;68121;52.404;5.318;2024-01-10T05:53:42;-4.00;61.00
78779;DHT22;68121;52.404;5.318;2024-01-10T05:56:08;-4.00;61.00
78779;DHT22;68121;52.404;5.318;2024-01-10T05:58:34;-4.00;60.90
78779;DHT22;68121;52.404;5.318;2024-01-10T06:01:00;-4.00;60.90
78779;DHT22;68121;52.404;5.318;2024-01-10T06:03:26;-4.00;60.90
78779;DHT22;68121;52.404;5.318;2024-01-10T06:05:52;-4.00;60.90
78779;DHT22;68121;52.404;5.318;2024-01-10T06:08:18;-4.00;60.90
78779;DHT22;68121;52.404;5.318;2024-01-10T06:10:44;-4.00;60.90
78779;DHT22;68121;52.404;5.318;2024-01-10T06:13:10;-4.00;60.90
78779;DHT22;68121;52.404;5.318;2024-01-10T06:15:36;-4.00;60.90
78779;DHT22;68121;52.404;5.318;2024-01-10T06:18:02;-4.00;60.90
78779;DHT22;68121;52.404;5.318;2024-01-10T06:20:29;-4.00;60.90
78779;DHT22;68121;52.404;5.318;2024-01-10T06:22:57;-4.00;60.90
78779;DHT22;68121;52.404;5.318;2024-01-10T06:25:23;-4.00;60.90
78779;DHT22;68121;52.404;5.318;2024-01-10T06:27:49;-4.00;60.90
78779;DHT22;68121;52.404;5.318;2024-01-10T06:30:15;-4.00;60.90
78779;DHT22;68121;52.404;5.318;2024-01-10T06:32:41;-4.00;60.90
78779;DHT22;68121;52.404;5.318;2024-01-10T06:35:07;-4.00;60.90
78779;DHT22;68121;52.404;5.318;2024-01-10T06:37:35;-4.00;60.80
78779;DHT22;68121;52.404;5.318;2024-01-10T06:40:01;-4.00;60.70
78779;DHT22;68121;52.404;5.318;2024-01-10T06:42:29;-4.00;60.70
78779;DHT22;68121;52.404;5.318;2024-01-10T06:44:55;-4.10;60.70
78779;DHT22;68121;52.404;5.318;2024-01-10T06:47:21;-4.10;60.70
78779;DHT22;68121;52.404;5.318;2024-01-10T06:49:47;-4.10;60.70
78779;DHT22;68121;52.404;5.318;2024-01-10T06:52:13;-4.10;60.60
78779;DHT22;68121;52.404;5.318;2024-01-10T06:54:39;-4.10;60.70
78779;DHT22;68121;52.404;5.318;2024-01-10T06:57:05;-4.10;60.60
78779;DHT22;68121;52.404;5.318;2024-01-10T06:59:31;-4.10;60.70
78779;DHT22;68121;52.404;5.318;2024-01-10T07:01:57;-4.00;60.70
78779;DHT22;68121;52.404;5.318;2024-01-10T07:04:25;-4.00;60.50
78779;DHT22;68121;52.404;5.318;2024-01-10T07:06:52;-4.00;60.50
78779;DHT22;68121;52.404;5.318;2024-01-10T07:09:18;-4.10;60.50
78779;DHT22;68121;52.404;5.318;2024-01-10T07:11:49;-4.00;60.60
78779;DHT22;68121;52.404;5.318;2024-01-10T07:14:16;-4.10;60.60
78779;DHT22;68121;52.404;5.318;2024-01-10T07:16:42;-4.10;60.50
78779;DHT22;68121;52.404;5.318;2024-01-10T07:19:09;-4.10;60.60
78779;DHT22;68121;52.404;5.318;2024-01-10T07:21:42;-4.10;60.60
78779;DHT22;68121;52.404;5.318;2024-01-10T07:24:09;-4.10;60.60
78779;DHT22;68121;52.404;5.318;2024-01-10T07:26:36;-4.10;60.50
78779;DHT22;68121;52.404;5.318;2024-01-10T07:29:02;-4.10;60.50
78779;DHT22;68121;52.404;5.318;2024-01-10T07:31:29;-4.10;60.50
78779;DHT22;68121;52.404;5.318;2024-01-10T07:33:56;-4.10;60.50
78779;DHT22;68121;52.404;5.318;2024-01-10T07:36:26;-4.10;60.50
78779;DHT22;68121;52.404;5.318;2024-01-10T07:39:00;-4.10;60.50
78779;DHT22;68121;52.404;5.318;2024-01-10T07:41:26;-4.10;60.50
78779;DHT22;68121;52.404;5.318;2024-01-10T07:43:52;-4.10;60.50
78779;DHT22;68121;52.404;5.318;2024-01-10T07:46:18;-4.10;60.50
78779;DHT22;68121;52.404;5.318;2024-01-10T07:48:44;-4.10;60.60
78779;DHT22;68121;52.404;5.318;2024-01-10T07:51:10;-4.10;60.50
78779;DHT22;68121;52.404;5.318;2024-01-10T07:53:36;-4.10;60.60
78779;DHT22;68121;52.404;5.318;2024-01-10T07:56:02;-4.10;60.60
78779;DHT22;68121;52.404;5.318;2024-01-10T07:58:28;-4.10;60.50
78779;DHT22;68121;52.404;5.318;2024-01-10T08:00:54;-4.10;60.50
78779;DHT22;68121;52.404;5.318;2024-01-10T08:03:20;-4.10;60.50
78779;DHT22;68121;52.404;5.318;2024-01-10T08:05:46;-4.10;60.50
78779;DHT22;68121;52.404;5.318;2024-01-10T08:08:12;-4.10;60.50
78779;DHT22;68121;52.404;5.318;2024-01-10T08:10:39;-4.10;60.40
78779;DHT22;68121;52.404;5.318;2024-01-10T08:13:06;-4.10;60.50
78779;DHT22;68121;52.404;5.318;2024-01-10T08:15:32;-4.10;60.50
78779;DHT22;68121;52.404;5.318;2024-01-10T08:18:00;-4.00;60.50
78779;DHT22;68121;52.404;5.318;2024-01-10T08:20:28;-4.00;60.50
78779;DHT22;68121;52.404;5.318;2024-01-10T08:22:54;-4.00;60.70
78779;DHT22;68121;52.404;5.318;2024-01-10T08:25:21;-3.70;60.70
78779;DHT22;68121;52.404;5.318;2024-01-10T08:27:48;-3.60;60.40
78779;DHT22;68121;52.404;5.318;2024-01-10T08:30:15;-3.40;60.20
78779;DHT22;68121;52.404;5.318;2024-01-10T08:32:41;-3.30;60.10
78779;DHT22;68121;52.404;5.318;2024-01-10T08:35:07;-3.20;60.00
78779;DHT22;68121;52.404;5.318;2024-01-10T08:37:37;-2.90;59.80
78779;DHT22;68121;52.404;5.318;2024-01-10T08:40:03;-2.70;59.60
78779;DHT22;68121;52.404;5.318;2024-01-10T08:42:35;-2.50;59.40
78779;DHT22;68121;52.404;5.318;2024-01-10T08:45:01;-2.20;59.20
78779;DHT22;68121;52.404;5.318;2024-01-10T08:47:27;-2.10;59.00
78779;DHT22;68121;52.404;5.318;2024-01-10T08:49:57;-1.80;58.80
78779;DHT22;68121;52.404;5.318;2024-01-10T08:52:23;-1.70;58.60
78779;DHT22;68121;52.404;5.318;2024-01-10T08:54:49;-1.50;58.50
78779;DHT22;68121;52.404;5.318;2024-01-10T08:57:15;-1.50;58.50
78779;DHT22;68121;52.404;5.318;2024-01-10T08:59:41;-1.30;58.40
78779;DHT22;68121;52.404;5.318;2024-01-10T09:02:08;-1.20;58.30
78779;DHT22;68121;52.404;5.318;2024-01-10T09:04:34;-1.10;58.30
78779;DHT22;68121;52.404;5.318;2024-01-10T09:07:00;-0.90;58.00
78779;DHT22;68121;52.404;5.318;2024-01-10T09:09:26;-0.90;57.80
78779;DHT22;68121;52.404;5.318;2024-01-10T09:11:51;-0.90;58.00
78779;DHT22;68121;52.404;5.318;2024-01-10T09:14:17;-0.80;58.00
78779;DHT22;68121;52.404;5.318;2024-01-10T09:16:43;-0.70;57.90
78779;DHT22;68121;52.404;5.318;2024-01-10T09:19:09;-0.60;57.80
78779;DHT22;68121;52.404;5.318;2024-01-10T09:21:35;-0.50;57.70
78779;DHT22;68121;52.404;5.318;2024-01-10T09:24:05;-0.40;57.70
78779;DHT22;68121;52.404;5.318;2024-01-10T09:26:34;-0.30;57.50
78779;DHT22;68121;52.404;5.318;2024-01-10T09:29:01;-0.30;57.60
78779;DHT22;68121;52.404;5.318;2024-01-10T09:31:27;-0.20;57.40
78779;DHT22;68121;52.404;5.318;2024-01-10T09:33:53;-0.20;57.40
78779;DHT22;68121;52.404;5.318;2024-01-10T09:36:18;-0.10;57.40
78779;DHT22;68121;52.404;5.318;2024-01-10T09:38:44;0.00;57.20
78779;DHT22;68121;52.404;5.318;2024-01-10T09:41:10;0.00;57.10
78779;DHT22;68121;52.404;5.318;2024-01-10T09:43:36;0.00;57.20
78779;DHT22;68121;52.404;5.318;2024-01-10T09:46:02;0.00;57.10
78779;DHT22;68121;52.404;5.318;2024-01-10T09:48:29;0.00;57.20
78779;DHT22;68121;52.404;5.318;2024-01-10T09:50:56;0.00;57.00
78779;DHT22;68121;52.404;5.318;2024-01-10T09:53:24;-0.10;56.90
78779;DHT22;68121;52.404;5.318;2024-01-10T09:55:50;0.00;57.10
78779;DHT22;68121;52.404;5.318;2024-01-10T09:58:16;0.00;57.00
78779;DHT22;68121;52.404;5.318;2024-01-10T10:00:44;0.00;57.00
78779;DHT22;68121;52.404;5.318;2024-01-10T10:03:10;0.00;56.90
78779;DHT22;68121;52.404;5.318;2024-01-10T10:05:39;0.20;56.80
78779;DHT22;68121;52.404;5.318;2024-01-10T10:08:09;0.30;56.70
78779;DHT22;68121;52.404;5.318;2024-01-10T10:10:36;0.40;56.50
78779;DHT22;68121;52.404;5.318;2024-01-10T10:13:09;0.50;56.50
78779;DHT22;68121;52.404;5.318;2024-01-10T10:15:36;0.50;56.40
78779;DHT22;68121;52.404;5.318;2024-01-10T10:18:03;0.60;56.50
78779;DHT22;68121;52.404;5.318;2024-01-10T10:20:30;0.80;56.40
78779;DHT22;68121;52.404;5.318;2024-01-10T10:23:06;0.80;56.00
78779;DHT22;68121;52.404;5.318;2024-01-10T10:25:38;0.80;55.80
78779;DHT22;68121;52.404;5.318;2024-01-10T10:28:08;0.70;55.80
78779;DHT22;68121;52.404;5.318;2024-01-10T10:30:34;0.80;56.00
78779;DHT22;68121;52.404;5.318;2024-01-10T10:33:01;0.90;56.00
78779;DHT22;68121;52.404;5.318;2024-01-10T10:35:27;1.00;55.70
78779;DHT22;68121;52.404;5.318;2024-01-10T10:37:53;1.00;55.70
78779;DHT22;68121;52.404;5.318;2024-01-10T10:40:23;1.10;55.80
78779;DHT22;68121;52.404;5.318;2024-01-10T10:42:55;1.30;55.50
78779;DHT22;68121;52.404;5.318;2024-01-10T10:45:21;1.40;55.40
78779;DHT22;68121;52.404;5.318;2024-01-10T10:48:00;1.50;55.30
78779;DHT22;68121;52.404;5.318;2024-01-10T10:50:29;1.70;55.20
78779;DHT22;68121;52.404;5.318;2024-01-10T10:52:59;1.90;55.00
78779;DHT22;68121;52.404;5.318;2024-01-10T10:55:27;1.90;54.70
78779;DHT22;68121;52.404;5.318;2024-01-10T10:57:55;1.90;54.50
78779;DHT22;68121;52.404;5.318;2024-01-10T11:00:22;1.90;54.60
78779;DHT22;68121;52.404;5.318;2024-01-10T11:02:56;2.00;54.60
78779;DHT22;68121;52.404;5.318;2024-01-10T11:05:26;2.00;54.20
78779;DHT22;68121;52.404;5.318;2024-01-10T11:07:52;1.90;54.30
78779;DHT22;68121;52.404;5.318;2024-01-10T11:10:31;1.90;54.50
78779;DHT22;68121;52.404;5.318;2024-01-10T11:18:28;2.40;53.90
78779;DHT22;68121;52.404;5.318;2024-01-10T11:21:32;2.50;53.70
78779;DHT22;68121;52.404;5.318;2024-01-10T11:24:04;2.50;53.60
78779;DHT22;68121;52.404;5.318;2024-01-10T11:26:32;2.60;53.50
78779;DHT22;68121;52.404;5.318;2024-01-10T11:28:59;2.60;53.50
78779;DHT22;68121;52.404;5.318;2024-01-10T11:31:31;2.60;53.40
78779;DHT22;68121;52.404;5.318;2024-01-10T11:33:58;2.60;53.30
78779;DHT22;68121;52.404;5.318;2024-01-10T11:36:24;2.60;53.40
78779;DHT22;68121;52.404;5.318;2024-01-10T11:41:31;2.70;52.90
78779;DHT22;68121;52.404;5.318;2024-01-10T11:46:40;2.60;53.10
78779;DHT22;68121;52.404;5.318;2024-01-10T11:49:10;2.80;53.00
78779;DHT22;68121;52.404;5.318;2024-01-10T11:51:44;2.80;52.80
78779;DHT22;68121;52.404;5.318;2024-01-10T11:54:11;2.90;52.60
78779;DHT22;68121;52.404;5.318;2024-01-10T11:56:41;3.00;52.60
78779;DHT22;68121;52.404;5.318;2024-01-10T11:59:09;3.10;52.50
78779;DHT22;68121;52.404;5.318;2024-01-10T12:01:37;3.10;52.30
78779;DHT22;68121;52.404;5.318;2024-01-10T12:04:04;3.20;52.30
78779;DHT22;68121;52.404;5.318;2024-01-10T12:06:37;3.30;52.10
78779;DHT22;68121;52.404;5.318;2024-01-10T12:09:04;3.30;52.10
78779;DHT22;68121;52.404;5.318;2024-01-10T12:11:42;3.20;51.90
78779;DHT22;68121;52.404;5.318;2024-01-10T12:14:08;3.20;52.10
78779;DHT22;68121;52.404;5.318;2024-01-10T12:16:35;3.20;52.10
78779;DHT22;68121;52.404;5.318;2024-01-10T12:19:01;3.30;52.00
78779;DHT22;68121;52.404;5.318;2024-01-10T12:21:27;3.30;51.90
78779;DHT22;68121;52.404;5.318;2024-01-10T12:23:53;3.30;51.90
78779;DHT22;68121;52.404;5.318;2024-01-10T12:26:19;3.30;51.80
78779;DHT22;68121;52.404;5.318;2024-01-10T12:28:56;3.30;51.60
78779;DHT22;68121;52.404;5.318;2024-01-10T12:31:23;3.40;51.60
78779;DHT22;68121;52.404;5.318;2024-01-10T12:33:49;3.40;51.70
78779;DHT22;68121;52.404;5.318;2024-01-10T12:36:17;3.50;51.60
78779;DHT22;68121;52.404;5.318;2024-01-10T12:38:44;3.50;51.40
78779;DHT22;68121;52.404;5.318;2024-01-10T12:41:15;3.50;51.40
78779;DHT22;68121;52.404;5.318;2024-01-10T12:43:42;3.50;51.30
78779;DHT22;68121;52.404;5.318;2024-01-10T12:46:10;3.50;51.20
78779;DHT22;68121;52.404;5.318;2024-01-10T12:48:37;3.50;51.00
78779;DHT22;68121;52.404;5.318;2024-01-10T12:51:04;3.50;51.10
78779;DHT22;68121;52.404;5.318;2024-01-10T12:53:35;3.50;50.90
78779;DHT22;68121;52.404;5.318;2024-01-10T12:56:02;3.60;50.80
78779;DHT22;68121;52.404;5.318;2024-01-10T12:58:29;3.60;50.70
78779;DHT22;68121;52.404;5.318;2024-01-10T13:00:55;3.70;50.70
78779;DHT22;68121;52.404;5.318;2024-01-10T13:03:22;3.80;50.60
78779;DHT22;68121;52.404;5.318;2024-01-10T13:05:50;3.90;50.50
78779;DHT22;68121;52.404;5.318;2024-01-10T13:08:16;3.90;50.60
78779;DHT22;68121;52.404;5.318;2024-01-10T13:10:42;3.90;50.50
78779;DHT22;68121;52.404;5.318;2024-01-10T13:13:08;4.00;50.40
78779;DHT22;68121;52.404;5.318;2024-01-10T13:15:34;4.00;50.30
78779;DHT22;68121;52.404;5.318;2024-01-10T13:18:00;4.00;50.40
78779;DHT22;68121;52.404;5.318;2024-01-10T13:20:26;4.10;50.40
78779;DHT22;68121;52.404;5.318;2024-01-10T13:22:53;4.10;50.40
78779;DHT22;68121;52.404;5.318;2024-01-10T13:25:19;4.20;50.60
78779;DHT22;68121;52.404;5.318;2024-01-10T13:27:52;4.30;50.50
78779;DHT22;68121;52.404;5.318;2024-01-10T13:30:18;4.30;50.30
78779;DHT22;68121;52.404;5.318;2024-01-10T13:32:45;4.30;50.50
78779;DHT22;68121;52.404;5.318;2024-01-10T13:35:13;4.40;50.50
78779;DHT22;68121;52.404;5.318;2024-01-10T13:37:40;4.50;50.20
78779;DHT22;68121;52.404;5.318;2024-01-10T13:40:10;4.40;50.20
78779;DHT22;68121;52.404;5.318;2024-01-10T13:42:38;4.40;50.20
78779;DHT22;68121;52.404;5.318;2024-01-10T13:45:06;4.30;50.30
78779;DHT22;68121;52.404;5.318;2024-01-10T13:47:32;4.30;50.50
78779;DHT22;68121;52.404;5.318;2024-01-10T13:50:01;4.30;50.40
78779;DHT22;68121;52.404;5.318;2024-01-10T13:52:29;4.20;50.40
78779;DHT22;68121;52.404;5.318;2024-01-10T13:54:55;4.20;50.30
78779;DHT22;68121;52.404;5.318;2024-01-10T13:57:24;4.20;50.20
78779;DHT22;68121;52.404;5.318;2024-01-10T13:59:50;4.00;50.10
78779;DHT22;68121;52.404;5.318;2024-01-10T14:02:16;3.90;50.10
78779;DHT22;68121;52.404;5.318;2024-01-10T14:04:45;3.70;50.10
78779;DHT22;68121;52.404;5.318;2024-01-10T14:07:11;3.50;50.20
78779;DHT22;68121;52.404;5.318;2024-01-10T14:09:37;3.50;50.30
78779;DHT22;68121;52.404;5.318;2024-01-10T14:12:04;3.60;50.40
78779;DHT22;68121;52.404;5.318;2024-01-10T14:14:30;3.60;50.30
78779;DHT22;68121;52.404;5.318;2024-01-10T14:16:58;3.60;50.10
78779;DHT22;68121;52.404;5.318;2024-01-10T14:19:25;3.50;50.30
78779;DHT22;68121;52.404;5.318;2024-01-10T14:21:52;3.50;50.40
78779;DHT22;68121;52.404;5.318;2024-01-10T14:24:18;3.50;50.50
78779;DHT22;68121;52.404;5.318;2024-01-10T14:26:44;3.50;50.70
78779;DHT22;68121;52.404;5.318;2024-01-10T14:29:10;3.50;50.70
78779;DHT22;68121;52.404;5.318;2024-01-10T14:31:36;3.50;50.70
78779;DHT22;68121;52.404;5.318;2024-01-10T14:34:02;3.50;50.60
78779;DHT22;68121;52.404;5.318;2024-01-10T14:36:29;3.40;50.70
78779;DHT22;68121;52.404;5.318;2024-01-10T14:38:55;3.30;50.80
78779;DHT22;68121;52.404;5.318;2024-01-10T14:41:21;3.30;51.00
78779;DHT22;68121;52.404;5.318;2024-01-10T14:43:48;3.20;51.00
78779;DHT22;68121;52.404;5.318;2024-01-10T14:46:14;3.20;51.20
78779;DHT22;68121;52.404;5.318;2024-01-10T14:48:41;3.30;51.20
78779;DHT22;68121;52.404;5.318;2024-01-10T14:51:07;3.20;51.10
78779;DHT22;68121;52.404;5.318;2024-01-10T14:53:33;3.20;51.20
78779;DHT22;68121;52.404;5.318;2024-01-10T14:56:03;3.30;51.10
78779;DHT22;68121;52.404;5.318;2024-01-10T14:58:29;3.20;51.10
78779;DHT22;68121;52.404;5.318;2024-01-10T15:00:58;3.20;51.30
78779;DHT22;68121;52.404;5.318;2024-01-10T15:03:24;3.30;51.30
78779;DHT22;68121;52.404;5.318;2024-01-10T15:05:51;3.20;51.40
78779;DHT22;68121;52.404;5.318;2024-01-10T15:08:19;3.10;51.40
78779;DHT22;68121;52.404;5.318;2024-01-10T15:10:45;3.10;51.50
78779;DHT22;68121;52.404;5.318;2024-01-10T15:13:12;3.10;51.40
78779;DHT22;68121;52.404;5.318;2024-01-10T15:15:38;2.90;51.30
78779;DHT22;68121;52.404;5.318;2024-01-10T15:18:05;2.80;51.30
78779;DHT22;68121;52.404;5.318;2024-01-10T15:20:31;2.70;51.40
78779;DHT22;68121;52.404;5.318;2024-01-10T15:22:58;2.50;51.40
78779;DHT22;68121;52.404;5.318;2024-01-10T15:25:24;2.50;51.40
78779;DHT22;68121;52.404;5.318;2024-01-10T15:27:53;2.40;51.40
78779;DHT22;68121;52.404;5.318;2024-01-10T15:30:19;2.40;51.40
78779;DHT22;68121;52.404;5.318;2024-01-10T15:32:49;2.30;51.40
78779;DHT22;68121;52.404;5.318;2024-01-10T15:35:16;2.30;51.40
78779;DHT22;68121;52.404;5.318;2024-01-10T15:37:43;2.20;51.40
78779;DHT22;68121;52.404;5.318;2024-01-10T15:40:10;2.20;51.30
78779;DHT22;68121;52.404;5.318;2024-01-10T15:42:37;2.10;51.40
78779;DHT22;68121;52.404;5.318;2024-01-10T15:45:04;2.00;51.30